PWSweather.com
Personal Weather Stations
Station Observations
MENWDWX1
Menstrie, ScotlandGB

MenstrieScotlandGB

Lat: 56.148322, Lon: -3.85483

Elevation: 62

Station Type: Davis Vantage Pro 2

High Low Average
Temperature 46.3°F7.9°F 34.1°F1.2°F 41.3°F5.2°F
Dew Point 38.4°F3.6°F 27.2°F-2.7°F 33.1°F0.6°F
Winds 12.7 mph W20.4 mph W Calm Calm 6.2 mph 10.0 mph
Wind Gusts 19.6 mph31.5 mph -- 9.7 mph15.6 mph
Humidity 79% 60% 73%
Pressure 30.12 in1020.00 in 29.96 in1014.60 in -
Precipitation 0.01 in0.30 in - -
Hour Temp Dew Point Humidity Winds Wind Gusts Pressure Precip Precip Rate Daily Precip Total
12:00 AM 43.9°F6.6°C 37.5°F3.1°C 78% 10.4 mph W16.7 kmh W 13.8 mph22.2 kmh 29.98 in1015.2 mb - 0.00 in0.0 mm 0.00 in0.0 mm
12:05 AM 44.3°F6.8°C 37.5°F3.1°C 77% 11.5 mph W18.5 kmh W 17.3 mph27.8 kmh 29.98 in1015.2 mb - 0.00 in0.0 mm 0.00 in0.0 mm
12:10 AM 44.5°F6.9°C 37.7°F3.2°C 77% 5.8 mph W9.3 kmh W 10.4 mph16.7 kmh 29.98 in1015.2 mb - 0.00 in0.0 mm 0.00 in0.0 mm
12:15 AM 44.4°F6.9°C 38.0°F3.3°C 78% 5.8 mph W9.3 kmh W 9.2 mph14.8 kmh 29.98 in1015.2 mb - 0.00 in0.0 mm 0.00 in0.0 mm
12:20 AM 44.4°F6.9°C 38.0°F3.3°C 78% 9.2 mph WNW14.8 kmh WNW 15.0 mph24.1 kmh 29.98 in1015.2 mb - 0.00 in0.0 mm 0.00 in0.0 mm
12:25 AM 44.4°F6.9°C 38.0°F3.3°C 78% 4.6 mph W7.4 kmh W 6.9 mph11.1 kmh 29.98 in1015.2 mb - 0.00 in0.0 mm 0.00 in0.0 mm
12:30 AM 44.4°F6.9°C 38.0°F3.3°C 78% 5.8 mph W9.3 kmh W 10.4 mph16.7 kmh 29.97 in1014.9 mb - 0.00 in0.0 mm 0.00 in0.0 mm
12:35 AM 44.6°F7.0°C 38.2°F3.4°C 78% 3.5 mph W5.6 kmh W 3.5 mph5.6 kmh 29.97 in1014.9 mb - 0.00 in0.0 mm 0.00 in0.0 mm
12:40 AM 44.9°F7.2°C 38.1°F3.4°C 77% 10.4 mph W16.7 kmh W 11.5 mph18.5 kmh 29.97 in1014.9 mb - 0.00 in0.0 mm 0.00 in0.0 mm
12:45 AM 45.1°F7.3°C 38.3°F3.5°C 77% 8.1 mph W13.0 kmh W 15.0 mph24.1 kmh 29.97 in1014.9 mb - 0.00 in0.0 mm 0.00 in0.0 mm
12:50 AM 45.1°F7.3°C 38.3°F3.5°C 77% 8.1 mph W13.0 kmh W 11.5 mph18.5 kmh 29.97 in1014.9 mb - 0.00 in0.0 mm 0.00 in0.0 mm
12:55 AM 45.2°F7.3°C 38.4°F3.6°C 77% 9.2 mph WNW14.8 kmh WNW 11.5 mph18.5 kmh 29.97 in1014.9 mb - 0.00 in0.0 mm 0.00 in0.0 mm
01:00 AM 45.1°F7.3°C 38.3°F3.5°C 77% 9.2 mph WNW14.8 kmh WNW 18.4 mph29.6 kmh 29.97 in1014.9 mb - 0.00 in0.0 mm 0.00 in0.0 mm
01:05 AM 45.1°F7.3°C 38.3°F3.5°C 77% 9.2 mph W14.8 kmh W 13.8 mph22.2 kmh 29.97 in1014.9 mb - 0.00 in0.0 mm 0.00 in0.0 mm
01:10 AM 45.0°F7.2°C 38.2°F3.4°C 77% 9.2 mph WSW14.8 kmh WSW 15.0 mph24.1 kmh 29.97 in1014.9 mb - 0.00 in0.0 mm 0.00 in0.0 mm
01:15 AM 44.6°F7.0°C 38.2°F3.4°C 78% 10.4 mph W16.7 kmh W 18.4 mph29.6 kmh 29.97 in1014.9 mb - 0.00 in0.0 mm 0.00 in0.0 mm
01:20 AM 44.2°F6.8°C 37.8°F3.2°C 78% 9.2 mph NW14.8 kmh NW 12.7 mph20.4 kmh 29.97 in1014.9 mb - 0.00 in0.0 mm 0.00 in0.0 mm
01:25 AM 44.0°F6.7°C 37.6°F3.1°C 78% 8.1 mph W13.0 kmh W 11.5 mph18.5 kmh 29.97 in1014.9 mb - 0.00 in0.0 mm 0.00 in0.0 mm
01:30 AM 43.9°F6.6°C 37.5°F3.1°C 78% 6.9 mph W11.1 kmh W 13.8 mph22.2 kmh 29.97 in1014.9 mb - 0.00 in0.0 mm 0.00 in0.0 mm
01:35 AM 43.9°F6.6°C 37.5°F3.1°C 78% 9.2 mph W14.8 kmh W 18.4 mph29.6 kmh 29.97 in1014.9 mb - 0.00 in0.0 mm 0.00 in0.0 mm
01:40 AM 44.1°F6.7°C 37.3°F2.9°C 77% 9.2 mph W14.8 kmh W 11.5 mph18.5 kmh 29.97 in1014.9 mb - 0.00 in0.0 mm 0.00 in0.0 mm
01:45 AM 44.1°F6.7°C 37.4°F3.0°C 77% 11.5 mph WNW18.5 kmh WNW 15.0 mph24.1 kmh 29.97 in1014.9 mb - 0.00 in0.0 mm 0.00 in0.0 mm
01:50 AM 44.2°F6.8°C 37.4°F3.0°C 77% 10.4 mph WNW16.7 kmh WNW 12.7 mph20.4 kmh 29.97 in1014.9 mb - 0.00 in0.0 mm 0.00 in0.0 mm
01:55 AM 44.2°F6.8°C 37.4°F3.0°C 77% 10.4 mph WNW16.7 kmh WNW 11.5 mph18.5 kmh 29.96 in1014.6 mb - 0.00 in0.0 mm 0.00 in0.0 mm
02:00 AM 44.3°F6.8°C 37.2°F2.9°C 76% 8.1 mph W13.0 kmh W 19.6 mph31.5 kmh 29.96 in1014.6 mb - 0.00 in0.0 mm 0.00 in0.0 mm
02:05 AM 44.5°F6.9°C 37.4°F3.0°C 76% 9.2 mph WNW14.8 kmh WNW 19.6 mph31.5 kmh 29.96 in1014.6 mb - 0.00 in0.0 mm 0.00 in0.0 mm
02:10 AM 44.3°F6.8°C 37.2°F2.9°C 76% 10.4 mph W16.7 kmh W 12.7 mph20.4 kmh 29.96 in1014.6 mb - 0.00 in0.0 mm 0.00 in0.0 mm
02:15 AM 44.1°F6.7°C 37.0°F2.8°C 76% 8.1 mph W13.0 kmh W 13.8 mph22.2 kmh 29.96 in1014.6 mb - 0.00 in0.0 mm 0.00 in0.0 mm
02:20 AM 44.0°F6.7°C 36.9°F2.7°C 76% 9.2 mph W14.8 kmh W 16.1 mph25.9 kmh 29.96 in1014.6 mb - 0.00 in0.0 mm 0.00 in0.0 mm
02:25 AM 44.1°F6.7°C 36.7°F2.6°C 75% 9.2 mph W14.8 kmh W 11.5 mph18.5 kmh 29.96 in1014.6 mb - 0.00 in0.0 mm 0.00 in0.0 mm
02:30 AM 44.1°F6.7°C 36.7°F2.6°C 75% 12.7 mph W20.4 kmh W 19.6 mph31.5 kmh 29.96 in1014.6 mb - 0.00 in0.0 mm 0.00 in0.0 mm
02:35 AM 44.2°F6.8°C 36.8°F2.7°C 75% 9.2 mph W14.8 kmh W 11.5 mph18.5 kmh 29.96 in1014.6 mb - 0.00 in0.0 mm 0.00 in0.0 mm
02:40 AM 44.2°F6.8°C 37.1°F2.8°C 76% 8.1 mph WSW13.0 kmh WSW 11.5 mph18.5 kmh 29.96 in1014.6 mb - 0.00 in0.0 mm 0.00 in0.0 mm
02:45 AM 44.2°F6.8°C 37.1°F2.8°C 76% 9.2 mph W14.8 kmh W 16.1 mph25.9 kmh 29.96 in1014.6 mb - 0.00 in0.0 mm 0.00 in0.0 mm
02:50 AM 44.3°F6.8°C 37.5°F3.1°C 77% 11.5 mph WNW18.5 kmh WNW 15.0 mph24.1 kmh 29.96 in1014.6 mb - 0.00 in0.0 mm 0.00 in0.0 mm
02:55 AM 44.1°F6.7°C 37.4°F3.0°C 77% 10.4 mph W16.7 kmh W 18.4 mph29.6 kmh 29.96 in1014.6 mb - 0.00 in0.0 mm 0.00 in0.0 mm
03:00 AM 44.0°F6.7°C 37.3°F2.9°C 77% 11.5 mph W18.5 kmh W 18.4 mph29.6 kmh 29.96 in1014.6 mb - 0.00 in0.0 mm 0.00 in0.0 mm
03:05 AM 44.0°F6.7°C 37.3°F2.9°C 77% 9.2 mph WNW14.8 kmh WNW 15.0 mph24.1 kmh 29.96 in1014.6 mb - 0.00 in0.0 mm 0.00 in0.0 mm
03:10 AM 44.0°F6.7°C 37.3°F2.9°C 77% 9.2 mph W14.8 kmh W 11.5 mph18.5 kmh 29.96 in1014.6 mb - 0.00 in0.0 mm 0.00 in0.0 mm
03:15 AM 43.9°F6.6°C 36.8°F2.7°C 76% 9.2 mph W14.8 kmh W 19.6 mph31.5 kmh 29.96 in1014.6 mb - 0.00 in0.0 mm 0.00 in0.0 mm
03:20 AM 43.8°F6.6°C 36.7°F2.6°C 76% 5.8 mph W9.3 kmh W 11.5 mph18.5 kmh 29.96 in1014.6 mb - 0.00 in0.0 mm 0.00 in0.0 mm
03:25 AM 43.8°F6.6°C 36.7°F2.6°C 76% 6.9 mph WSW11.1 kmh WSW 15.0 mph24.1 kmh 29.97 in1014.9 mb - 0.00 in0.0 mm 0.00 in0.0 mm
03:30 AM 43.9°F6.6°C 36.8°F2.7°C 76% 8.1 mph W13.0 kmh W 11.5 mph18.5 kmh 29.97 in1014.9 mb - 0.00 in0.0 mm 0.00 in0.0 mm
03:35 AM 43.8°F6.6°C 36.7°F2.6°C 76% 10.4 mph NW16.7 kmh NW 19.6 mph31.5 kmh 29.97 in1014.9 mb - 0.00 in0.0 mm 0.00 in0.0 mm
03:40 AM 43.9°F6.6°C 36.5°F2.5°C 75% 11.5 mph WNW18.5 kmh WNW 17.3 mph27.8 kmh 29.97 in1014.9 mb - 0.00 in0.0 mm 0.00 in0.0 mm
03:45 AM 44.2°F6.8°C 36.8°F2.7°C 75% 11.5 mph NW18.5 kmh NW 15.0 mph24.1 kmh 29.97 in1014.9 mb - 0.00 in0.0 mm 0.00 in0.0 mm
03:50 AM 44.2°F6.8°C 36.5°F2.5°C 74% 11.5 mph NW18.5 kmh NW 19.6 mph31.5 kmh 29.97 in1014.9 mb - 0.00 in0.0 mm 0.00 in0.0 mm
03:55 AM 44.1°F6.7°C 36.4°F2.4°C 74% 10.4 mph NW16.7 kmh NW 12.7 mph20.4 kmh 29.97 in1014.9 mb - 0.00 in0.0 mm 0.00 in0.0 mm
04:00 AM 43.9°F6.6°C 36.1°F2.3°C 74% 9.2 mph WNW14.8 kmh WNW 12.7 mph20.4 kmh 29.97 in1014.9 mb - 0.00 in0.0 mm 0.00 in0.0 mm
04:05 AM 43.6°F6.4°C 35.9°F2.2°C 74% 9.2 mph NW14.8 kmh NW 12.7 mph20.4 kmh 29.97 in1014.9 mb - 0.00 in0.0 mm 0.00 in0.0 mm
04:10 AM 43.5°F6.4°C 35.8°F2.1°C 74% 11.5 mph NW18.5 kmh NW 17.3 mph27.8 kmh 29.97 in1014.9 mb - 0.00 in0.0 mm 0.00 in0.0 mm
04:15 AM 43.5°F6.4°C 35.7°F2.1°C 74% 9.2 mph NW14.8 kmh NW 13.8 mph22.2 kmh 29.97 in1014.9 mb - 0.00 in0.0 mm 0.00 in0.0 mm
04:20 AM 43.3°F6.3°C 35.6°F2.0°C 74% 8.1 mph NW13.0 kmh NW 11.5 mph18.5 kmh 29.97 in1014.9 mb - 0.00 in0.0 mm 0.00 in0.0 mm
04:25 AM 43.1°F6.2°C 35.4°F1.9°C 74% 6.9 mph W11.1 kmh W 12.7 mph20.4 kmh 29.97 in1014.9 mb - 0.00 in0.0 mm 0.00 in0.0 mm
04:30 AM 43.2°F6.2°C 35.5°F1.9°C 74% 6.9 mph WNW11.1 kmh WNW 10.4 mph16.7 kmh 29.98 in1015.2 mb - 0.00 in0.0 mm 0.00 in0.0 mm
04:35 AM 43.1°F6.2°C 35.4°F1.9°C 74% 9.2 mph WNW14.8 kmh WNW 10.4 mph16.7 kmh 29.98 in1015.2 mb - 0.00 in0.0 mm 0.00 in0.0 mm
04:40 AM 43.0°F6.1°C 35.3°F1.8°C 74% 10.4 mph NW16.7 kmh NW 11.5 mph18.5 kmh 29.98 in1015.2 mb - 0.00 in0.0 mm 0.00 in0.0 mm
04:45 AM 43.0°F6.1°C 35.3°F1.8°C 74% 8.1 mph WNW13.0 kmh WNW 9.2 mph14.8 kmh 29.98 in1015.2 mb - 0.00 in0.0 mm 0.00 in0.0 mm
04:50 AM 42.9°F6.1°C 35.2°F1.8°C 74% 10.4 mph NW16.7 kmh NW 12.7 mph20.4 kmh 29.98 in1015.2 mb - 0.00 in0.0 mm 0.00 in0.0 mm
04:55 AM 43.0°F6.1°C 35.3°F1.8°C 74% 9.2 mph NW14.8 kmh NW 13.8 mph22.2 kmh 29.98 in1015.2 mb - 0.00 in0.0 mm 0.00 in0.0 mm
05:00 AM 43.2°F6.2°C 35.5°F1.9°C 74% 8.1 mph NW13.0 kmh NW 12.7 mph20.4 kmh 29.99 in1015.6 mb - 0.00 in0.0 mm 0.00 in0.0 mm
05:05 AM 43.2°F6.2°C 35.5°F1.9°C 74% 9.2 mph NW14.8 kmh NW 11.5 mph18.5 kmh 29.98 in1015.2 mb - 0.00 in0.0 mm 0.00 in0.0 mm
05:10 AM 43.2°F6.2°C 35.5°F1.9°C 74% 5.8 mph NW9.3 kmh NW 11.5 mph18.5 kmh 29.99 in1015.6 mb - 0.00 in0.0 mm 0.00 in0.0 mm
05:15 AM 43.2°F6.2°C 35.8°F2.1°C 75% 6.9 mph WNW11.1 kmh WNW 10.4 mph16.7 kmh 29.99 in1015.6 mb - 0.00 in0.0 mm 0.00 in0.0 mm
05:20 AM 43.1°F6.2°C 35.8°F2.1°C 75% 8.1 mph WNW13.0 kmh WNW 9.2 mph14.8 kmh 29.99 in1015.6 mb - 0.00 in0.0 mm 0.00 in0.0 mm
05:25 AM 43.2°F6.2°C 35.8°F2.1°C 75% 5.8 mph WNW9.3 kmh WNW 8.1 mph13.0 kmh 29.99 in1015.6 mb - 0.00 in0.0 mm 0.00 in0.0 mm
05:30 AM 43.2°F6.2°C 35.8°F2.1°C 75% 8.1 mph NW13.0 kmh NW 11.5 mph18.5 kmh 30.00 in1015.9 mb - 0.00 in0.0 mm 0.00 in0.0 mm
05:35 AM 43.2°F6.2°C 35.5°F1.9°C 74% 5.8 mph NW9.3 kmh NW 9.2 mph14.8 kmh 29.99 in1015.6 mb - 0.00 in0.0 mm 0.00 in0.0 mm
05:40 AM 43.3°F6.3°C 35.6°F2.0°C 74% 5.8 mph NW9.3 kmh NW 9.2 mph14.8 kmh 29.99 in1015.6 mb - 0.00 in0.0 mm 0.00 in0.0 mm
05:45 AM 43.3°F6.3°C 35.6°F2.0°C 74% 5.8 mph NW9.3 kmh NW 10.4 mph16.7 kmh 30.00 in1015.9 mb - 0.00 in0.0 mm 0.00 in0.0 mm
05:50 AM 43.3°F6.3°C 35.6°F2.0°C 74% 10.4 mph WNW16.7 kmh WNW 11.5 mph18.5 kmh 30.00 in1015.9 mb - 0.00 in0.0 mm 0.00 in0.0 mm
05:55 AM 43.4°F6.3°C 35.6°F2.0°C 74% 9.2 mph WNW14.8 kmh WNW 11.5 mph18.5 kmh 30.00 in1015.9 mb - 0.00 in0.0 mm 0.00 in0.0 mm
06:00 AM 43.4°F6.3°C 35.6°F2.0°C 74% 6.9 mph W11.1 kmh W 11.5 mph18.5 kmh 30.00 in1015.9 mb - 0.00 in0.0 mm 0.00 in0.0 mm
06:05 AM 43.3°F6.3°C 35.6°F2.0°C 74% 8.1 mph W13.0 kmh W 11.5 mph18.5 kmh 30.00 in1015.9 mb - 0.00 in0.0 mm 0.00 in0.0 mm
06:10 AM 43.2°F6.2°C 35.5°F1.9°C 74% 8.1 mph WNW13.0 kmh WNW 10.4 mph16.7 kmh 30.00 in1015.9 mb - 0.00 in0.0 mm 0.00 in0.0 mm
06:15 AM 43.2°F6.2°C 35.5°F1.9°C 74% 6.9 mph WNW11.1 kmh WNW 9.2 mph14.8 kmh 30.00 in1015.9 mb - 0.00 in0.0 mm 0.00 in0.0 mm
06:20 AM 43.1°F6.2°C 35.7°F2.1°C 75% 6.9 mph W11.1 kmh W 11.5 mph18.5 kmh 30.01 in1016.3 mb - 0.00 in0.0 mm 0.00 in0.0 mm
06:25 AM 42.9°F6.1°C 35.2°F1.8°C 74% 6.9 mph WNW11.1 kmh WNW 10.4 mph16.7 kmh 30.01 in1016.3 mb - 0.00 in0.0 mm 0.00 in0.0 mm
06:30 AM 42.7°F5.9°C 35.3°F1.8°C 75% 6.9 mph WNW11.1 kmh WNW 6.9 mph11.1 kmh 30.01 in1016.3 mb - 0.00 in0.0 mm 0.00 in0.0 mm
06:35 AM 42.5°F5.8°C 35.1°F1.7°C 75% 5.8 mph W9.3 kmh W 6.9 mph11.1 kmh 30.01 in1016.3 mb - 0.00 in0.0 mm 0.00 in0.0 mm
06:40 AM 42.1°F5.6°C 34.8°F1.6°C 75% 8.1 mph W13.0 kmh W 10.4 mph16.7 kmh 30.01 in1016.3 mb - 0.00 in0.0 mm 0.00 in0.0 mm
06:45 AM 41.9°F5.5°C 34.6°F1.4°C 75% 5.8 mph NW9.3 kmh NW 9.2 mph14.8 kmh 30.02 in1016.6 mb - 0.00 in0.0 mm 0.00 in0.0 mm
06:50 AM 41.7°F5.4°C 34.4°F1.3°C 75% 8.1 mph NW13.0 kmh NW 9.2 mph14.8 kmh 30.02 in1016.6 mb - 0.00 in0.0 mm 0.00 in0.0 mm
06:55 AM 41.5°F5.3°C 34.2°F1.2°C 75% 5.8 mph WNW9.3 kmh WNW 11.5 mph18.5 kmh 30.02 in1016.6 mb - 0.00 in0.0 mm 0.00 in0.0 mm
07:00 AM 41.4°F5.2°C 34.4°F1.3°C 76% 8.1 mph WNW13.0 kmh WNW 10.4 mph16.7 kmh 30.02 in1016.6 mb - 0.00 in0.0 mm 0.00 in0.0 mm
07:05 AM 41.3°F5.2°C 34.3°F1.3°C 76% 8.1 mph WNW13.0 kmh WNW 12.7 mph20.4 kmh 30.02 in1016.6 mb - 0.00 in0.0 mm 0.00 in0.0 mm
07:10 AM 41.3°F5.2°C 34.3°F1.3°C 76% 4.6 mph WNW7.4 kmh WNW 11.5 mph18.5 kmh 30.02 in1016.6 mb - 0.00 in0.0 mm 0.00 in0.0 mm
07:15 AM 41.3°F5.2°C 34.0°F1.1°C 75% 6.9 mph W11.1 kmh W 11.5 mph18.5 kmh 30.02 in1016.6 mb - 0.00 in0.0 mm 0.00 in0.0 mm
07:20 AM 41.1°F5.1°C 33.8°F1.0°C 75% 5.8 mph WNW9.3 kmh WNW 11.5 mph18.5 kmh 30.02 in1016.6 mb - 0.00 in0.0 mm 0.00 in0.0 mm
07:25 AM 41.1°F5.1°C 33.8°F1.0°C 75% 6.9 mph WNW11.1 kmh WNW 11.5 mph18.5 kmh 30.02 in1016.6 mb - 0.00 in0.0 mm 0.00 in0.0 mm
07:30 AM 41.1°F5.1°C 33.8°F1.0°C 75% 3.5 mph WNW5.6 kmh WNW 8.1 mph13.0 kmh 30.02 in1016.6 mb - 0.00 in0.0 mm 0.00 in0.0 mm
07:35 AM 41.1°F5.1°C 33.4°F0.8°C 74% 6.9 mph WNW11.1 kmh WNW 11.5 mph18.5 kmh 30.02 in1016.6 mb - 0.00 in0.0 mm 0.00 in0.0 mm
07:40 AM 41.1°F5.1°C 33.4°F0.8°C 74% 5.8 mph WNW9.3 kmh WNW 8.1 mph13.0 kmh 30.03 in1016.9 mb - 0.00 in0.0 mm 0.00 in0.0 mm
07:45 AM 41.0°F5.0°C 33.3°F0.7°C 74% 6.9 mph W11.1 kmh W 11.5 mph18.5 kmh 30.03 in1016.9 mb - 0.00 in0.0 mm 0.00 in0.0 mm
07:50 AM 40.9°F4.9°C 33.6°F0.9°C 75% 8.1 mph W13.0 kmh W 11.5 mph18.5 kmh 30.03 in1016.9 mb - 0.00 in0.0 mm 0.00 in0.0 mm
07:55 AM 40.9°F4.9°C 33.6°F0.9°C 75% 4.6 mph W7.4 kmh W 9.2 mph14.8 kmh 30.03 in1016.9 mb - 0.00 in0.0 mm 0.00 in0.0 mm
08:00 AM 40.7°F4.8°C 33.4°F0.8°C 75% 3.5 mph WNW5.6 kmh WNW 9.2 mph14.8 kmh 30.04 in1017.3 mb - 0.00 in0.0 mm 0.00 in0.0 mm
08:05 AM 40.4°F4.7°C 33.4°F0.8°C 76% 3.5 mph W5.6 kmh W 3.5 mph5.6 kmh 30.04 in1017.3 mb - 0.00 in0.0 mm 0.00 in0.0 mm
08:10 AM 40.1°F4.5°C 33.1°F0.6°C 76% 2.3 mph WSW3.7 kmh WSW 3.5 mph5.6 kmh 30.04 in1017.3 mb - 0.00 in0.0 mm 0.00 in0.0 mm
08:15 AM 39.8°F4.3°C 33.2°F0.7°C 77% Calm Calm 1.2 mph1.9 kmh 30.04 in1017.3 mb - 0.00 in0.0 mm 0.00 in0.0 mm
08:20 AM 39.4°F4.1°C 32.8°F0.4°C 77% Calm Calm -- 30.05 in1017.6 mb - 0.00 in0.0 mm 0.00 in0.0 mm
08:25 AM 39.0°F3.9°C 32.4°F0.2°C 77% Calm Calm 1.2 mph1.9 kmh 30.05 in1017.6 mb - 0.00 in0.0 mm 0.00 in0.0 mm
08:30 AM 38.6°F3.7°C 32.0°F0.0°C 77% 2.3 mph SE3.7 kmh SE 3.5 mph5.6 kmh 30.05 in1017.6 mb - 0.00 in0.0 mm 0.00 in0.0 mm
08:35 AM 38.3°F3.5°C 32.0°F0.0°C 78% 1.2 mph SE1.9 kmh SE 2.3 mph3.7 kmh 30.05 in1017.6 mb - 0.00 in0.0 mm 0.00 in0.0 mm
08:40 AM 38.0°F3.3°C 31.7°F-0.2°C 78% Calm Calm -- 30.05 in1017.6 mb - 0.00 in0.0 mm 0.00 in0.0 mm
08:45 AM 37.8°F3.2°C 31.6°F-0.2°C 78% Calm Calm 1.2 mph1.9 kmh 30.05 in1017.6 mb - 0.00 in0.0 mm 0.00 in0.0 mm
08:50 AM 37.7°F3.2°C 31.5°F-0.3°C 78% Calm Calm -- 30.05 in1017.6 mb - 0.00 in0.0 mm 0.00 in0.0 mm
08:55 AM 37.7°F3.2°C 31.5°F-0.3°C 78% Calm Calm -- 30.05 in1017.6 mb - 0.00 in0.0 mm 0.00 in0.0 mm
09:00 AM 37.5°F3.1°C 31.3°F-0.4°C 78% Calm Calm -- 30.05 in1017.6 mb - 0.00 in0.0 mm 0.00 in0.0 mm
09:05 AM 37.5°F3.1°C 31.6°F-0.2°C 79% 1.2 mph W1.9 kmh W 3.5 mph5.6 kmh 30.05 in1017.6 mb - 0.00 in0.0 mm 0.00 in0.0 mm
09:10 AM 38.0°F3.3°C 32.1°F0.1°C 79% 2.3 mph W3.7 kmh W 3.5 mph5.6 kmh 30.05 in1017.6 mb - 0.00 in0.0 mm 0.00 in0.0 mm
09:15 AM 38.5°F3.6°C 32.5°F0.3°C 79% 2.3 mph W3.7 kmh W 3.5 mph5.6 kmh 30.05 in1017.6 mb - 0.00 in0.0 mm 0.00 in0.0 mm
09:20 AM 38.9°F3.8°C 32.7°F0.4°C 78% 3.5 mph SW5.6 kmh SW 4.6 mph7.4 kmh 30.04 in1017.3 mb - 0.00 in0.0 mm 0.00 in0.0 mm
09:25 AM 39.1°F3.9°C 32.9°F0.5°C 78% 1.2 mph WSW1.9 kmh WSW 3.5 mph5.6 kmh 30.05 in1017.6 mb - 0.00 in0.0 mm 0.00 in0.0 mm
09:30 AM 39.2°F4.0°C 32.9°F0.5°C 78% Calm Calm -- 30.05 in1017.6 mb - 0.00 in0.0 mm 0.00 in0.0 mm
09:35 AM 39.2°F4.0°C 32.9°F0.5°C 78% 1.2 mph WSW1.9 kmh WSW 3.5 mph5.6 kmh 30.05 in1017.6 mb - 0.00 in0.0 mm 0.00 in0.0 mm
09:40 AM 39.2°F4.0°C 32.9°F0.5°C 78% 2.3 mph WSW3.7 kmh WSW 3.5 mph5.6 kmh 30.05 in1017.6 mb - 0.00 in0.0 mm 0.00 in0.0 mm
09:45 AM 39.2°F4.0°C 32.9°F0.5°C 78% 3.5 mph W5.6 kmh W 5.8 mph9.3 kmh 30.05 in1017.6 mb - 0.00 in0.0 mm 0.00 in0.0 mm
09:50 AM 39.3°F4.1°C 33.0°F0.6°C 78% 2.3 mph W3.7 kmh W 3.5 mph5.6 kmh 30.05 in1017.6 mb - 0.00 in0.0 mm 0.00 in0.0 mm
09:55 AM 39.5°F4.2°C 33.2°F0.7°C 78% 3.5 mph W5.6 kmh W 5.8 mph9.3 kmh 30.05 in1017.6 mb - 0.00 in0.0 mm 0.00 in0.0 mm
10:00 AM 39.8°F4.3°C 33.5°F0.8°C 78% 5.8 mph W9.3 kmh W 9.2 mph14.8 kmh 30.05 in1017.6 mb - 0.00 in0.0 mm 0.00 in0.0 mm
10:05 AM 40.3°F4.6°C 33.7°F0.9°C 77% 5.8 mph WSW9.3 kmh WSW 6.9 mph11.1 kmh 30.05 in1017.6 mb - 0.00 in0.0 mm 0.00 in0.0 mm
10:10 AM 40.7°F4.8°C 34.1°F1.2°C 77% 5.8 mph WSW9.3 kmh WSW 10.4 mph16.7 kmh 30.05 in1017.6 mb - 0.00 in0.0 mm 0.00 in0.0 mm
10:15 AM 41.0°F5.0°C 34.3°F1.3°C 77% 8.1 mph WSW13.0 kmh WSW 10.4 mph16.7 kmh 30.04 in1017.3 mb - 0.00 in0.0 mm 0.00 in0.0 mm
10:20 AM 41.1°F5.1°C 34.1°F1.2°C 76% 8.1 mph W13.0 kmh W 11.5 mph18.5 kmh 30.05 in1017.6 mb - 0.00 in0.0 mm 0.00 in0.0 mm
10:25 AM 41.5°F5.3°C 34.2°F1.2°C 75% 6.9 mph W11.1 kmh W 11.5 mph18.5 kmh 30.04 in1017.3 mb - 0.00 in0.0 mm 0.00 in0.0 mm
10:30 AM 41.9°F5.5°C 34.2°F1.2°C 74% 11.5 mph W18.5 kmh W 15.0 mph24.1 kmh 30.04 in1017.3 mb - 0.00 in0.0 mm 0.00 in0.0 mm
10:35 AM 42.1°F5.6°C 34.1°F1.2°C 73% 9.2 mph W14.8 kmh W 13.8 mph22.2 kmh 30.04 in1017.3 mb - 0.00 in0.0 mm 0.00 in0.0 mm
10:40 AM 42.1°F5.6°C 34.1°F1.2°C 73% 10.4 mph W16.7 kmh W 12.7 mph20.4 kmh 30.04 in1017.3 mb - 0.00 in0.0 mm 0.00 in0.0 mm
10:45 AM 42.1°F5.6°C 33.7°F0.9°C 72% 10.4 mph W16.7 kmh W 13.8 mph22.2 kmh 30.05 in1017.6 mb - 0.00 in0.0 mm 0.00 in0.0 mm
10:50 AM 42.3°F5.7°C 33.9°F1.1°C 72% 9.2 mph W14.8 kmh W 12.7 mph20.4 kmh 30.05 in1017.6 mb - 0.00 in0.0 mm 0.00 in0.0 mm
10:55 AM 42.7°F5.9°C 34.3°F1.3°C 72% 9.2 mph W14.8 kmh W 13.8 mph22.2 kmh 30.05 in1017.6 mb - 0.00 in0.0 mm 0.00 in0.0 mm
11:00 AM 43.1°F6.2°C 34.4°F1.3°C 71% 8.1 mph W13.0 kmh W 13.8 mph22.2 kmh 30.05 in1017.6 mb - 0.00 in0.0 mm 0.00 in0.0 mm
11:05 AM 43.6°F6.4°C 34.1°F1.2°C 69% 6.9 mph W11.1 kmh W 8.1 mph13.0 kmh 30.05 in1017.6 mb - 0.00 in0.0 mm 0.00 in0.0 mm
11:10 AM 43.9°F6.6°C 34.0°F1.1°C 68% 9.2 mph WSW14.8 kmh WSW 11.5 mph18.5 kmh 30.05 in1017.6 mb - 0.00 in0.0 mm 0.00 in0.0 mm
11:15 AM 43.7°F6.5°C 33.8°F1.0°C 68% 5.8 mph WSW9.3 kmh WSW 11.5 mph18.5 kmh 30.05 in1017.6 mb - 0.00 in0.0 mm 0.00 in0.0 mm
11:20 AM 43.5°F6.4°C 33.6°F0.9°C 68% 4.6 mph W7.4 kmh W 9.2 mph14.8 kmh 30.05 in1017.6 mb - 0.00 in0.0 mm 0.00 in0.0 mm
11:25 AM 43.3°F6.3°C 33.4°F0.8°C 68% 6.9 mph WSW11.1 kmh WSW 11.5 mph18.5 kmh 30.05 in1017.6 mb - 0.00 in0.0 mm 0.00 in0.0 mm
11:30 AM 43.0°F6.1°C 33.2°F0.7°C 68% 4.6 mph W7.4 kmh W 6.9 mph11.1 kmh 30.05 in1017.6 mb - 0.00 in0.0 mm 0.00 in0.0 mm
11:35 AM 43.0°F6.1°C 33.5°F0.8°C 69% 6.9 mph W11.1 kmh W 10.4 mph16.7 kmh 30.05 in1017.6 mb - 0.00 in0.0 mm 0.00 in0.0 mm
11:40 AM 43.1°F6.2°C 34.0°F1.1°C 70% 5.8 mph WSW9.3 kmh WSW 9.2 mph14.8 kmh 30.05 in1017.6 mb - 0.00 in0.0 mm 0.00 in0.0 mm
11:45 AM 43.1°F6.2°C 34.0°F1.1°C 70% 3.5 mph WSW5.6 kmh WSW 10.4 mph16.7 kmh 30.05 in1017.6 mb - 0.00 in0.0 mm 0.00 in0.0 mm
11:50 AM 43.1°F6.2°C 34.0°F1.1°C 70% 5.8 mph W9.3 kmh W 5.8 mph9.3 kmh 30.05 in1017.6 mb - 0.00 in0.0 mm 0.00 in0.0 mm
11:55 AM 43.0°F6.1°C 34.2°F1.2°C 71% 6.9 mph WSW11.1 kmh WSW 13.8 mph22.2 kmh 30.05 in1017.6 mb - 0.00 in0.0 mm 0.00 in0.0 mm
12:00 PM 42.9°F6.1°C 34.2°F1.2°C 71% 6.9 mph W11.1 kmh W 8.1 mph13.0 kmh 30.05 in1017.6 mb - 0.00 in0.0 mm 0.00 in0.0 mm
12:05 PM 42.9°F6.1°C 34.1°F1.2°C 71% 6.9 mph WSW11.1 kmh WSW 11.5 mph18.5 kmh 30.05 in1017.6 mb - 0.00 in0.0 mm 0.00 in0.0 mm
12:10 PM 43.0°F6.1°C 34.2°F1.2°C 71% 4.6 mph WSW7.4 kmh WSW 10.4 mph16.7 kmh 30.05 in1017.6 mb - 0.00 in0.0 mm 0.00 in0.0 mm
12:15 PM 43.0°F6.1°C 34.2°F1.2°C 71% 5.8 mph WSW9.3 kmh WSW 10.4 mph16.7 kmh 30.05 in1017.6 mb - 0.00 in0.0 mm 0.00 in0.0 mm
12:20 PM 42.9°F6.1°C 33.8°F1.0°C 70% 6.9 mph W11.1 kmh W 11.5 mph18.5 kmh 30.05 in1017.6 mb - 0.00 in0.0 mm 0.00 in0.0 mm
12:25 PM 43.1°F6.2°C 34.3°F1.3°C 71% 4.6 mph WSW7.4 kmh WSW 6.9 mph11.1 kmh 30.05 in1017.6 mb - 0.00 in0.0 mm 0.00 in0.0 mm
12:30 PM 43.8°F6.6°C 35.0°F1.7°C 71% 8.1 mph WSW13.0 kmh WSW 11.5 mph18.5 kmh 30.05 in1017.6 mb - 0.00 in0.0 mm 0.00 in0.0 mm
12:35 PM 44.9°F7.2°C 35.7°F2.1°C 70% 6.9 mph WSW11.1 kmh WSW 11.5 mph18.5 kmh 30.05 in1017.6 mb - 0.00 in0.0 mm 0.00 in0.0 mm
12:40 PM 45.4°F7.4°C 35.8°F2.1°C 69% 6.9 mph WSW11.1 kmh WSW 9.2 mph14.8 kmh 30.05 in1017.6 mb - 0.00 in0.0 mm 0.00 in0.0 mm
12:45 PM 45.7°F7.6°C 35.7°F2.1°C 68% 9.2 mph WSW14.8 kmh WSW 11.5 mph18.5 kmh 30.04 in1017.3 mb - 0.00 in0.0 mm 0.00 in0.0 mm
12:50 PM 46.0°F7.8°C 35.3°F1.8°C 66% 8.1 mph WSW13.0 kmh WSW 12.7 mph20.4 kmh 30.04 in1017.3 mb - 0.01 in0.3 mm 0.01 in0.3 mm
12:55 PM 46.2°F7.9°C 34.3°F1.3°C 63% 9.2 mph WSW14.8 kmh WSW 11.5 mph18.5 kmh 30.04 in1017.3 mb - 0.00 in0.0 mm 0.01 in0.3 mm
01:00 PM 46.3°F7.9°C 35.2°F1.8°C 65% 10.4 mph WSW16.7 kmh WSW 13.8 mph22.2 kmh 30.04 in1017.3 mb - 0.00 in0.0 mm 0.01 in0.3 mm
01:05 PM 46.0°F7.8°C 34.9°F1.6°C 65% 9.2 mph WSW14.8 kmh WSW 13.8 mph22.2 kmh 30.04 in1017.3 mb - 0.00 in0.0 mm 0.01 in0.3 mm
01:10 PM 45.3°F7.4°C 34.9°F1.6°C 67% 8.1 mph WSW13.0 kmh WSW 12.7 mph20.4 kmh 30.04 in1017.3 mb - 0.00 in0.0 mm 0.01 in0.3 mm
01:15 PM 44.9°F7.2°C 34.6°F1.4°C 67% 9.2 mph WSW14.8 kmh WSW 12.7 mph20.4 kmh 30.05 in1017.6 mb - 0.00 in0.0 mm 0.01 in0.3 mm
01:20 PM 44.6°F7.0°C 34.3°F1.3°C 67% 6.9 mph WSW11.1 kmh WSW 11.5 mph18.5 kmh 30.05 in1017.6 mb - 0.00 in0.0 mm 0.01 in0.3 mm
01:25 PM 44.1°F6.7°C 34.2°F1.2°C 68% 9.2 mph WSW14.8 kmh WSW 15.0 mph24.1 kmh 30.05 in1017.6 mb - 0.00 in0.0 mm 0.01 in0.3 mm
01:30 PM 43.9°F6.6°C 34.0°F1.1°C 68% 9.2 mph W14.8 kmh W 16.1 mph25.9 kmh 30.05 in1017.6 mb - 0.00 in0.0 mm 0.01 in0.3 mm
01:35 PM 43.8°F6.6°C 34.3°F1.3°C 69% 9.2 mph WSW14.8 kmh WSW 13.8 mph22.2 kmh 30.05 in1017.6 mb - 0.00 in0.0 mm 0.01 in0.3 mm
01:40 PM 43.7°F6.5°C 34.2°F1.2°C 69% 8.1 mph W13.0 kmh W 12.7 mph20.4 kmh 30.05 in1017.6 mb - 0.00 in0.0 mm 0.01 in0.3 mm
01:45 PM 43.6°F6.4°C 34.5°F1.4°C 70% 8.1 mph WSW13.0 kmh WSW 10.4 mph16.7 kmh 30.05 in1017.6 mb - 0.00 in0.0 mm 0.01 in0.3 mm
01:50 PM 43.7°F6.5°C 34.5°F1.4°C 70% 9.2 mph W14.8 kmh W 11.5 mph18.5 kmh 30.05 in1017.6 mb - 0.00 in0.0 mm 0.01 in0.3 mm
01:55 PM 43.8°F6.6°C 34.7°F1.5°C 70% 8.1 mph W13.0 kmh W 9.2 mph14.8 kmh 30.05 in1017.6 mb - 0.00 in0.0 mm 0.01 in0.3 mm
02:00 PM 43.8°F6.6°C 35.0°F1.7°C 71% 9.2 mph WSW14.8 kmh WSW 17.3 mph27.8 kmh 30.05 in1017.6 mb - 0.00 in0.0 mm 0.01 in0.3 mm
02:05 PM 43.7°F6.5°C 34.9°F1.6°C 71% 8.1 mph W13.0 kmh W 13.8 mph22.2 kmh 30.05 in1017.6 mb - 0.00 in0.0 mm 0.01 in0.3 mm
02:10 PM 43.7°F6.5°C 35.3°F1.8°C 72% 8.1 mph W13.0 kmh W 10.4 mph16.7 kmh 30.05 in1017.6 mb - 0.00 in0.0 mm 0.01 in0.3 mm
02:15 PM 43.6°F6.4°C 35.2°F1.8°C 72% 8.1 mph WSW13.0 kmh WSW 12.7 mph20.4 kmh 30.05 in1017.6 mb - 0.00 in0.0 mm 0.01 in0.3 mm
02:20 PM 43.5°F6.4°C 34.8°F1.6°C 71% 10.4 mph W16.7 kmh W 11.5 mph18.5 kmh 30.05 in1017.6 mb - 0.00 in0.0 mm 0.01 in0.3 mm
02:25 PM 43.5°F6.4°C 35.1°F1.7°C 72% 6.9 mph W11.1 kmh W 10.4 mph16.7 kmh 30.05 in1017.6 mb - 0.00 in0.0 mm 0.01 in0.3 mm
02:30 PM 43.4°F6.3°C 35.0°F1.7°C 72% 6.9 mph W11.1 kmh W 11.5 mph18.5 kmh 30.05 in1017.6 mb - 0.00 in0.0 mm 0.01 in0.3 mm
02:35 PM 43.4°F6.3°C 34.6°F1.4°C 71% 5.8 mph W9.3 kmh W 11.5 mph18.5 kmh 30.05 in1017.6 mb - 0.00 in0.0 mm 0.01 in0.3 mm
02:40 PM 43.3°F6.3°C 34.5°F1.4°C 71% 6.9 mph W11.1 kmh W 11.5 mph18.5 kmh 30.05 in1017.6 mb - 0.00 in0.0 mm 0.01 in0.3 mm
02:45 PM 43.2°F6.2°C 34.4°F1.3°C 71% 5.8 mph W9.3 kmh W 8.1 mph13.0 kmh 30.05 in1017.6 mb - 0.00 in0.0 mm 0.01 in0.3 mm
02:50 PM 43.1°F6.2°C 34.7°F1.5°C 72% 8.1 mph WNW13.0 kmh WNW 10.4 mph16.7 kmh 30.05 in1017.6 mb - 0.00 in0.0 mm 0.01 in0.3 mm
02:55 PM 43.1°F6.2°C 34.3°F1.3°C 71% 6.9 mph W11.1 kmh W 11.5 mph18.5 kmh 30.05 in1017.6 mb - 0.00 in0.0 mm 0.01 in0.3 mm
03:00 PM 43.1°F6.2°C 34.3°F1.3°C 71% 8.1 mph WNW13.0 kmh WNW 11.5 mph18.5 kmh 30.05 in1017.6 mb - 0.00 in0.0 mm 0.01 in0.3 mm
03:05 PM 43.1°F6.2°C 34.0°F1.1°C 70% 9.2 mph W14.8 kmh W 13.8 mph22.2 kmh 30.05 in1017.6 mb - 0.00 in0.0 mm 0.01 in0.3 mm
03:10 PM 43.2°F6.2°C 34.1°F1.2°C 70% 8.1 mph W13.0 kmh W 12.7 mph20.4 kmh 30.04 in1017.3 mb - 0.00 in0.0 mm 0.01 in0.3 mm
03:15 PM 43.3°F6.3°C 34.2°F1.2°C 70% 8.1 mph W13.0 kmh W 13.8 mph22.2 kmh 30.04 in1017.3 mb - 0.00 in0.0 mm 0.01 in0.3 mm
03:20 PM 43.3°F6.3°C 34.2°F1.2°C 70% 6.9 mph WNW11.1 kmh WNW 12.7 mph20.4 kmh 30.05 in1017.6 mb - 0.00 in0.0 mm 0.01 in0.3 mm
03:25 PM 43.3°F6.3°C 34.2°F1.2°C 70% 8.1 mph W13.0 kmh W 13.8 mph22.2 kmh 30.04 in1017.3 mb - 0.00 in0.0 mm 0.01 in0.3 mm
03:30 PM 43.1°F6.2°C 34.0°F1.1°C 70% 9.2 mph W14.8 kmh W 15.0 mph24.1 kmh 30.04 in1017.3 mb - 0.00 in0.0 mm 0.01 in0.3 mm
03:35 PM 43.0°F6.1°C 33.5°F0.8°C 69% 11.5 mph W18.5 kmh W 18.4 mph29.6 kmh 30.03 in1016.9 mb - 0.00 in0.0 mm 0.01 in0.3 mm
03:40 PM 42.7°F5.9°C 33.3°F0.7°C 69% 12.7 mph WNW20.4 kmh WNW 19.6 mph31.5 kmh 30.03 in1016.9 mb - 0.00 in0.0 mm 0.01 in0.3 mm
03:45 PM 42.5°F5.8°C 32.7°F0.4°C 68% 11.5 mph WNW18.5 kmh WNW 11.5 mph18.5 kmh 30.04 in1017.3 mb - 0.00 in0.0 mm 0.01 in0.3 mm
03:50 PM 42.4°F5.8°C 32.2°F0.1°C 67% 9.2 mph WNW14.8 kmh WNW 15.0 mph24.1 kmh 30.04 in1017.3 mb - 0.00 in0.0 mm 0.01 in0.3 mm
03:55 PM 42.4°F5.8°C 32.2°F0.1°C 67% 9.2 mph WNW14.8 kmh WNW 17.3 mph27.8 kmh 30.04 in1017.3 mb - 0.00 in0.0 mm 0.01 in0.3 mm
04:00 PM 42.3°F5.7°C 32.5°F0.3°C 68% 9.2 mph WNW14.8 kmh WNW 13.8 mph22.2 kmh 30.04 in1017.3 mb - 0.00 in0.0 mm 0.01 in0.3 mm
04:05 PM 42.2°F5.7°C 32.4°F0.2°C 68% 6.9 mph WNW11.1 kmh WNW 10.4 mph16.7 kmh 30.04 in1017.3 mb - 0.00 in0.0 mm 0.01 in0.3 mm
04:10 PM 41.9°F5.5°C 32.1°F0.1°C 68% 8.1 mph NW13.0 kmh NW 13.8 mph22.2 kmh 30.05 in1017.6 mb - 0.00 in0.0 mm 0.01 in0.3 mm
04:15 PM 41.9°F5.5°C 32.1°F0.1°C 68% 9.2 mph WNW14.8 kmh WNW 11.5 mph18.5 kmh 30.05 in1017.6 mb - 0.00 in0.0 mm 0.01 in0.3 mm
04:20 PM 41.8°F5.4°C 32.0°F0.0°C 68% 6.9 mph WNW11.1 kmh WNW 11.5 mph18.5 kmh 30.05 in1017.6 mb - 0.00 in0.0 mm 0.01 in0.3 mm
04:25 PM 41.8°F5.4°C 31.6°F-0.2°C 67% 4.6 mph W7.4 kmh W 11.5 mph18.5 kmh 30.05 in1017.6 mb - 0.00 in0.0 mm 0.01 in0.3 mm
04:30 PM 41.7°F5.4°C 31.9°F-0.1°C 68% 6.9 mph NW11.1 kmh NW 11.5 mph18.5 kmh 30.05 in1017.6 mb - 0.00 in0.0 mm 0.01 in0.3 mm
04:35 PM 41.7°F5.4°C 31.9°F-0.1°C 68% 6.9 mph NW11.1 kmh NW 12.7 mph20.4 kmh 30.05 in1017.6 mb - 0.00 in0.0 mm 0.01 in0.3 mm
04:40 PM 41.6°F5.3°C 31.8°F-0.1°C 68% 2.3 mph N3.7 kmh N 3.5 mph5.6 kmh 30.05 in1017.6 mb - 0.00 in0.0 mm 0.01 in0.3 mm
04:45 PM 41.5°F5.3°C 32.1°F0.1°C 69% Calm Calm 2.3 mph3.7 kmh 30.06 in1017.9 mb - 0.00 in0.0 mm 0.01 in0.3 mm
04:50 PM 41.1°F5.1°C 31.7°F-0.2°C 69% 2.3 mph ENE3.7 kmh ENE 3.5 mph5.6 kmh 30.05 in1017.6 mb - 0.00 in0.0 mm 0.01 in0.3 mm
04:55 PM 40.6°F4.8°C 31.6°F-0.2°C 70% Calm Calm 1.2 mph1.9 kmh 30.05 in1017.6 mb - 0.00 in0.0 mm 0.01 in0.3 mm
05:00 PM 40.2°F4.6°C 31.2°F-0.4°C 70% 1.2 mph ENE1.9 kmh ENE 3.5 mph5.6 kmh 30.06 in1017.9 mb - 0.00 in0.0 mm 0.01 in0.3 mm
05:05 PM 39.6°F4.2°C 30.9°F-0.6°C 71% 2.3 mph N3.7 kmh N 3.5 mph5.6 kmh 30.06 in1017.9 mb - 0.00 in0.0 mm 0.01 in0.3 mm
05:10 PM 38.6°F3.7°C 30.7°F-0.7°C 73% 3.5 mph N5.6 kmh N 3.5 mph5.6 kmh 30.06 in1017.9 mb - 0.00 in0.0 mm 0.01 in0.3 mm
05:15 PM 37.9°F3.3°C 30.4°F-0.9°C 74% 4.6 mph NNE7.4 kmh NNE 9.2 mph14.8 kmh 30.07 in1018.3 mb - 0.00 in0.0 mm 0.01 in0.3 mm
05:20 PM 37.5°F3.1°C 30.3°F-0.9°C 75% 4.6 mph N7.4 kmh N 6.9 mph11.1 kmh 30.07 in1018.3 mb - 0.00 in0.0 mm 0.01 in0.3 mm
05:25 PM 37.4°F3.0°C 30.2°F-1.0°C 75% 4.6 mph NW7.4 kmh NW 11.5 mph18.5 kmh 30.07 in1018.3 mb - 0.00 in0.0 mm 0.01 in0.3 mm
05:30 PM 37.8°F3.2°C 30.5°F-0.8°C 75% 8.1 mph NW13.0 kmh NW 9.2 mph14.8 kmh 30.07 in1018.3 mb - 0.00 in0.0 mm 0.01 in0.3 mm
05:35 PM 38.6°F3.7°C 31.1°F-0.5°C 74% 4.6 mph WNW7.4 kmh WNW 9.2 mph14.8 kmh 30.07 in1018.3 mb - 0.00 in0.0 mm 0.01 in0.3 mm
05:40 PM 39.3°F4.1°C 31.0°F-0.6°C 72% 8.1 mph W13.0 kmh W 11.5 mph18.5 kmh 30.07 in1018.3 mb - 0.00 in0.0 mm 0.01 in0.3 mm
05:45 PM 39.8°F4.3°C 31.2°F-0.4°C 71% 10.4 mph WSW16.7 kmh WSW 15.0 mph24.1 kmh 30.06 in1017.9 mb - 0.00 in0.0 mm 0.01 in0.3 mm
05:50 PM 40.4°F4.7°C 30.7°F-0.7°C 68% 10.4 mph W16.7 kmh W 15.0 mph24.1 kmh 30.07 in1018.3 mb - 0.00 in0.0 mm 0.01 in0.3 mm
05:55 PM 41.0°F5.0°C 30.5°F-0.8°C 66% 6.9 mph WSW11.1 kmh WSW 12.7 mph20.4 kmh 30.07 in1018.3 mb - 0.00 in0.0 mm 0.01 in0.3 mm
06:00 PM 41.1°F5.1°C 30.2°F-1.0°C 65% 6.9 mph W11.1 kmh W 19.6 mph31.5 kmh 30.07 in1018.3 mb - 0.00 in0.0 mm 0.01 in0.3 mm
06:05 PM 41.4°F5.2°C 29.7°F-1.3°C 63% 6.9 mph W11.1 kmh W 13.8 mph22.2 kmh 30.07 in1018.3 mb - 0.00 in0.0 mm 0.01 in0.3 mm
06:10 PM 41.4°F5.2°C 29.3°F-1.5°C 62% 11.5 mph WSW18.5 kmh WSW 17.3 mph27.8 kmh 30.07 in1018.3 mb - 0.00 in0.0 mm 0.01 in0.3 mm
06:15 PM 41.7°F5.4°C 28.8°F-1.8°C 60% 12.7 mph W20.4 kmh W 15.0 mph24.1 kmh 30.07 in1018.3 mb - 0.00 in0.0 mm 0.01 in0.3 mm
06:20 PM 41.6°F5.3°C 29.2°F-1.6°C 61% 8.1 mph W13.0 kmh W 11.5 mph18.5 kmh 30.07 in1018.3 mb - 0.00 in0.0 mm 0.01 in0.3 mm
06:25 PM 41.3°F5.2°C 29.3°F-1.5°C 62% 10.4 mph W16.7 kmh W 12.7 mph20.4 kmh 30.07 in1018.3 mb - 0.00 in0.0 mm 0.01 in0.3 mm
06:30 PM 41.1°F5.1°C 29.1°F-1.6°C 62% 10.4 mph W16.7 kmh W 11.5 mph18.5 kmh 30.07 in1018.3 mb - 0.00 in0.0 mm 0.01 in0.3 mm
06:35 PM 41.0°F5.0°C 29.0°F-1.7°C 62% 9.2 mph W14.8 kmh W 13.8 mph22.2 kmh 30.07 in1018.3 mb - 0.00 in0.0 mm 0.01 in0.3 mm
06:40 PM 41.3°F5.2°C 28.9°F-1.7°C 61% 5.8 mph W9.3 kmh W 9.2 mph14.8 kmh 30.08 in1018.6 mb - 0.00 in0.0 mm 0.01 in0.3 mm
06:45 PM 41.2°F5.1°C 29.2°F-1.6°C 62% 6.9 mph W11.1 kmh W 8.1 mph13.0 kmh 30.08 in1018.6 mb - 0.00 in0.0 mm 0.01 in0.3 mm
06:50 PM 41.0°F5.0°C 29.0°F-1.7°C 62% 5.8 mph W9.3 kmh W 11.5 mph18.5 kmh 30.08 in1018.6 mb - 0.00 in0.0 mm 0.01 in0.3 mm
07:00 PM 40.6°F4.8°C 29.0°F-1.7°C 63% 4.6 mph W7.4 kmh W 8.1 mph13.0 kmh 30.08 in1018.6 mb - 0.00 in0.0 mm 0.01 in0.3 mm
07:05 PM 40.5°F4.7°C 28.5°F-1.9°C 62% 4.6 mph W7.4 kmh W 9.2 mph14.8 kmh 30.08 in1018.6 mb - 0.00 in0.0 mm 0.01 in0.3 mm
07:10 PM 40.4°F4.7°C 29.2°F-1.6°C 64% 1.2 mph WSW1.9 kmh WSW 3.5 mph5.6 kmh 30.08 in1018.6 mb - 0.00 in0.0 mm 0.01 in0.3 mm
07:15 PM 39.9°F4.4°C 29.4°F-1.4°C 66% 1.2 mph WSW1.9 kmh WSW 2.3 mph3.7 kmh 30.08 in1018.6 mb - 0.00 in0.0 mm 0.01 in0.3 mm
07:20 PM 39.4°F4.1°C 29.7°F-1.3°C 68% 1.2 mph WSW1.9 kmh WSW 2.3 mph3.7 kmh 30.08 in1018.6 mb - 0.00 in0.0 mm 0.01 in0.3 mm
07:25 PM 38.6°F3.7°C 29.3°F-1.5°C 69% 1.2 mph WSW1.9 kmh WSW 2.3 mph3.7 kmh 30.08 in1018.6 mb - 0.00 in0.0 mm 0.01 in0.3 mm
07:30 PM 37.8°F3.2°C 29.2°F-1.6°C 71% 1.2 mph WNW1.9 kmh WNW 2.3 mph3.7 kmh 30.09 in1019.0 mb - 0.00 in0.0 mm 0.01 in0.3 mm
07:35 PM 37.1°F2.8°C 28.9°F-1.7°C 72% 2.3 mph NW3.7 kmh NW 3.5 mph5.6 kmh 30.08 in1018.6 mb - 0.00 in0.0 mm 0.01 in0.3 mm
07:40 PM 36.7°F2.6°C 28.8°F-1.8°C 73% 3.5 mph NW5.6 kmh NW 9.2 mph14.8 kmh 30.09 in1019.0 mb - 0.00 in0.0 mm 0.01 in0.3 mm
07:45 PM 36.8°F2.7°C 29.0°F-1.7°C 73% 8.1 mph NW13.0 kmh NW 11.5 mph18.5 kmh 30.09 in1019.0 mb - 0.00 in0.0 mm 0.01 in0.3 mm
07:50 PM 37.6°F3.1°C 29.4°F-1.4°C 72% 8.1 mph NW13.0 kmh NW 11.5 mph18.5 kmh 30.09 in1019.0 mb - 0.00 in0.0 mm 0.01 in0.3 mm
07:55 PM 38.2°F3.4°C 29.6°F-1.3°C 71% 8.1 mph NW13.0 kmh NW 11.5 mph18.5 kmh 30.09 in1019.0 mb - 0.00 in0.0 mm 0.01 in0.3 mm
08:00 PM 38.4°F3.6°C 29.5°F-1.4°C 70% 6.9 mph NW11.1 kmh NW 11.5 mph18.5 kmh 30.09 in1019.0 mb - 0.00 in0.0 mm 0.01 in0.3 mm
08:05 PM 38.4°F3.6°C 29.1°F-1.6°C 69% 2.3 mph WNW3.7 kmh WNW 3.5 mph5.6 kmh 30.09 in1019.0 mb - 0.00 in0.0 mm 0.01 in0.3 mm
08:10 PM 38.3°F3.5°C 29.0°F-1.7°C 69% 4.6 mph W7.4 kmh W 8.1 mph13.0 kmh 30.09 in1019.0 mb - 0.00 in0.0 mm 0.01 in0.3 mm
08:15 PM 38.2°F3.4°C 29.3°F-1.5°C 70% 4.6 mph W7.4 kmh W 5.8 mph9.3 kmh 30.09 in1019.0 mb - 0.00 in0.0 mm 0.01 in0.3 mm
08:20 PM 38.2°F3.4°C 28.9°F-1.7°C 69% 8.1 mph NW13.0 kmh NW 11.5 mph18.5 kmh 30.09 in1019.0 mb - 0.00 in0.0 mm 0.01 in0.3 mm
08:25 PM 38.9°F3.8°C 28.9°F-1.7°C 67% 6.9 mph WNW11.1 kmh WNW 11.5 mph18.5 kmh 30.09 in1019.0 mb - 0.00 in0.0 mm 0.01 in0.3 mm
08:30 PM 39.5°F4.2°C 29.1°F-1.6°C 66% 4.6 mph W7.4 kmh W 8.1 mph13.0 kmh 30.09 in1019.0 mb - 0.00 in0.0 mm 0.01 in0.3 mm
08:35 PM 39.5°F4.2°C 29.1°F-1.6°C 66% 1.2 mph W1.9 kmh W 3.5 mph5.6 kmh 30.09 in1019.0 mb - 0.00 in0.0 mm 0.01 in0.3 mm
08:40 PM 38.9°F3.8°C 29.2°F-1.6°C 68% 1.2 mph W1.9 kmh W 2.3 mph3.7 kmh 30.09 in1019.0 mb - 0.00 in0.0 mm 0.01 in0.3 mm
08:45 PM 38.2°F3.4°C 29.3°F-1.5°C 70% 1.2 mph W1.9 kmh W 2.3 mph3.7 kmh 30.09 in1019.0 mb - 0.00 in0.0 mm 0.01 in0.3 mm
08:50 PM 37.6°F3.1°C 29.0°F-1.7°C 71% Calm Calm 1.2 mph1.9 kmh 30.10 in1019.3 mb - 0.00 in0.0 mm 0.01 in0.3 mm
08:55 PM 37.2°F2.9°C 29.0°F-1.7°C 72% 1.2 mph W1.9 kmh W 2.3 mph3.7 kmh 30.10 in1019.3 mb - 0.00 in0.0 mm 0.01 in0.3 mm
09:00 PM 36.8°F2.7°C 29.0°F-1.7°C 73% Calm Calm -- 30.10 in1019.3 mb - 0.00 in0.0 mm 0.01 in0.3 mm
09:05 PM 36.4°F2.4°C 28.6°F-1.9°C 73% Calm Calm -- 30.10 in1019.3 mb - 0.00 in0.0 mm 0.01 in0.3 mm
09:10 PM 36.3°F2.4°C 28.5°F-1.9°C 73% 1.2 mph SE1.9 kmh SE 3.5 mph5.6 kmh 30.10 in1019.3 mb - 0.00 in0.0 mm 0.01 in0.3 mm
09:15 PM 36.4°F2.4°C 28.6°F-1.9°C 73% Calm Calm 3.5 mph5.6 kmh 30.10 in1019.3 mb - 0.00 in0.0 mm 0.01 in0.3 mm
09:20 PM 36.4°F2.4°C 28.6°F-1.9°C 73% Calm Calm -- 30.10 in1019.3 mb - 0.00 in0.0 mm 0.01 in0.3 mm
09:25 PM 36.1°F2.3°C 28.6°F-1.9°C 74% Calm Calm -- 30.10 in1019.3 mb - 0.00 in0.0 mm 0.01 in0.3 mm
09:30 PM 35.8°F2.1°C 28.3°F-2.1°C 74% Calm Calm 3.5 mph5.6 kmh 30.10 in1019.3 mb - 0.00 in0.0 mm 0.01 in0.3 mm
09:35 PM 35.6°F2.0°C 28.5°F-1.9°C 75% Calm Calm -- 30.10 in1019.3 mb - 0.00 in0.0 mm 0.01 in0.3 mm
09:40 PM 35.5°F1.9°C 28.4°F-2.0°C 75% Calm Calm -- 30.10 in1019.3 mb - 0.00 in0.0 mm 0.01 in0.3 mm
09:45 PM 35.3°F1.8°C 28.2°F-2.1°C 75% Calm Calm -- 30.11 in1019.6 mb - 0.00 in0.0 mm 0.01 in0.3 mm
09:50 PM 35.1°F1.7°C 28.0°F-2.2°C 75% 1.2 mph SSE1.9 kmh SSE 2.3 mph3.7 kmh 30.10 in1019.3 mb - 0.00 in0.0 mm 0.01 in0.3 mm
09:55 PM 35.0°F1.7°C 28.2°F-2.1°C 76% 2.3 mph SW3.7 kmh SW 3.5 mph5.6 kmh 30.11 in1019.6 mb - 0.00 in0.0 mm 0.01 in0.3 mm
10:00 PM 35.1°F1.7°C 28.0°F-2.2°C 75% 4.6 mph WSW7.4 kmh WSW 8.1 mph13.0 kmh 30.10 in1019.3 mb - 0.00 in0.0 mm 0.01 in0.3 mm
10:05 PM 36.0°F2.2°C 28.5°F-1.9°C 74% 4.6 mph W7.4 kmh W 11.5 mph18.5 kmh 30.10 in1019.3 mb - 0.00 in0.0 mm 0.01 in0.3 mm
10:10 PM 36.8°F2.7°C 28.3°F-2.1°C 71% 5.8 mph NW9.3 kmh NW 11.5 mph18.5 kmh 30.11 in1019.6 mb - 0.00 in0.0 mm 0.01 in0.3 mm
10:15 PM 37.4°F3.0°C 28.8°F-1.8°C 71% 2.3 mph W3.7 kmh W 3.5 mph5.6 kmh 30.11 in1019.6 mb - 0.00 in0.0 mm 0.01 in0.3 mm
10:20 PM 36.9°F2.7°C 28.4°F-2.0°C 71% 2.3 mph W3.7 kmh W 2.3 mph3.7 kmh 30.11 in1019.6 mb - 0.00 in0.0 mm 0.01 in0.3 mm
10:25 PM 36.3°F2.4°C 28.1°F-2.2°C 72% Calm Calm -- 30.11 in1019.6 mb - 0.00 in0.0 mm 0.01 in0.3 mm
10:30 PM 35.6°F2.0°C 27.8°F-2.3°C 73% 1.2 mph W1.9 kmh W 2.3 mph3.7 kmh 30.11 in1019.6 mb - 0.00 in0.0 mm 0.01 in0.3 mm
10:35 PM 35.2°F1.8°C 27.8°F-2.3°C 74% 3.5 mph NW5.6 kmh NW 11.5 mph18.5 kmh 30.11 in1019.6 mb - 0.00 in0.0 mm 0.01 in0.3 mm
10:40 PM 37.0°F2.8°C 28.5°F-1.9°C 71% 5.8 mph NW9.3 kmh NW 9.2 mph14.8 kmh 30.11 in1019.6 mb - 0.00 in0.0 mm 0.01 in0.3 mm
10:45 PM 37.9°F3.3°C 28.7°F-1.8°C 69% 6.9 mph W11.1 kmh W 9.2 mph14.8 kmh 30.11 in1019.6 mb - 0.00 in0.0 mm 0.01 in0.3 mm
10:50 PM 38.7°F3.7°C 28.7°F-1.8°C 67% 3.5 mph W5.6 kmh W 10.4 mph16.7 kmh 30.11 in1019.6 mb - 0.00 in0.0 mm 0.01 in0.3 mm
10:55 PM 39.2°F4.0°C 28.8°F-1.8°C 66% 3.5 mph WSW5.6 kmh WSW 3.5 mph5.6 kmh 30.11 in1019.6 mb - 0.00 in0.0 mm 0.01 in0.3 mm
11:00 PM 38.7°F3.7°C 28.7°F-1.8°C 67% 2.3 mph S3.7 kmh S 3.5 mph5.6 kmh 30.12 in1020.0 mb - 0.00 in0.0 mm 0.01 in0.3 mm
11:05 PM 37.9°F3.3°C 28.2°F-2.1°C 68% 1.2 mph S1.9 kmh S 3.5 mph5.6 kmh 30.12 in1020.0 mb - 0.00 in0.0 mm 0.01 in0.3 mm
11:10 PM 37.0°F2.8°C 28.1°F-2.2°C 70% 2.3 mph SSE3.7 kmh SSE 4.6 mph7.4 kmh 30.12 in1020.0 mb - 0.00 in0.0 mm 0.01 in0.3 mm
11:15 PM 36.4°F2.4°C 27.9°F-2.3°C 71% Calm Calm 1.2 mph1.9 kmh 30.12 in1020.0 mb - 0.00 in0.0 mm 0.01 in0.3 mm
11:20 PM 35.9°F2.2°C 27.7°F-2.4°C 72% 1.2 mph E1.9 kmh E 2.3 mph3.7 kmh 30.12 in1020.0 mb - 0.00 in0.0 mm 0.01 in0.3 mm
11:25 PM 35.4°F1.9°C 27.6°F-2.4°C 73% 2.3 mph NNE3.7 kmh NNE 3.5 mph5.6 kmh 30.12 in1020.0 mb - 0.00 in0.0 mm 0.01 in0.3 mm
11:30 PM 34.9°F1.6°C 27.5°F-2.5°C 74% Calm Calm -- 30.12 in1020.0 mb - 0.00 in0.0 mm 0.01 in0.3 mm
11:35 PM 34.6°F1.4°C 27.5°F-2.5°C 75% 1.2 mph E1.9 kmh E 3.5 mph5.6 kmh 30.12 in1020.0 mb - 0.00 in0.0 mm 0.01 in0.3 mm
11:40 PM 34.3°F1.3°C 27.2°F-2.7°C 75% 2.3 mph ESE3.7 kmh ESE 3.5 mph5.6 kmh 30.12 in1020.0 mb - 0.00 in0.0 mm 0.01 in0.3 mm
11:45 PM 34.1°F1.2°C 27.3°F-2.6°C 76% 2.3 mph ESE3.7 kmh ESE 3.5 mph5.6 kmh 30.12 in1020.0 mb - 0.00 in0.0 mm 0.01 in0.3 mm
11:50 PM 34.1°F1.2°C 27.3°F-2.6°C 76% 2.3 mph ESE3.7 kmh ESE 3.5 mph5.6 kmh 30.12 in1020.0 mb - 0.00 in0.0 mm 0.01 in0.3 mm
11:55 PM 34.2°F1.2°C 27.4°F-2.6°C 76% 2.3 mph ESE3.7 kmh ESE 3.5 mph5.6 kmh 30.12 in1020.0 mb - 0.00 in0.0 mm 0.01 in0.3 mm